createdAt,value
2023-02-15T00:01:41.506Z,1.28
2023-02-15T00:04:08.428Z,1.12
2023-02-15T00:06:34.990Z,1.14
2023-02-15T00:09:01.552Z,1.35
2023-02-15T00:11:46.805Z,1.16
2023-02-15T00:14:22.595Z,1.14
2023-02-15T00:16:49.712Z,1.07
2023-02-15T00:19:17.356Z,1.10
2023-02-15T00:21:43.959Z,1.13
2023-02-15T00:24:11.381Z,1.15
2023-02-15T00:26:39.309Z,1.02
2023-02-15T00:29:05.775Z,0.67
2023-02-15T00:31:33.010Z,0.53
2023-02-15T00:34:13.208Z,0.62
2023-02-15T00:36:39.572Z,0.55
2023-02-15T00:39:06.136Z,0.53
2023-02-15T00:41:33.356Z,0.51
2023-02-15T00:43:59.857Z,0.56
2023-02-15T00:46:26.330Z,0.58
2023-02-15T00:48:52.780Z,0.65
2023-02-15T00:51:19.272Z,0.61
2023-02-15T00:53:45.756Z,0.64
2023-02-15T00:56:12.233Z,0.63
2023-02-15T00:58:38.695Z,0.39
2023-02-15T01:01:06.714Z,0.35
2023-02-15T01:03:33.241Z,0.11
2023-02-15T01:05:59.961Z,0.17
2023-02-15T01:08:26.775Z,0.28
2023-02-15T01:10:53.988Z,0.28
2023-02-15T01:13:20.439Z,0.31
2023-02-15T01:15:46.921Z,0.25
2023-02-15T01:18:13.595Z,0.10
2023-02-15T01:20:41.989Z,0.00
2023-02-15T01:23:08.811Z,-0.02
2023-02-15T01:25:35.714Z,-0.04
2023-02-15T01:28:02.515Z,-0.01
2023-02-15T01:30:29.264Z,0.18
2023-02-15T01:32:55.889Z,0.20
2023-02-15T01:35:22.378Z,-0.01
2023-02-15T01:37:48.843Z,-0.08
2023-02-15T01:40:17.625Z,-0.14
2023-02-15T01:42:44.389Z,0.08
2023-02-15T01:45:27.981Z,-0.10
2023-02-15T01:48:06.716Z,-0.19
2023-02-15T01:50:39.357Z,-0.32
2023-02-15T01:53:10.236Z,-0.17
2023-02-15T01:55:54.238Z,-0.19
2023-02-15T01:58:21.244Z,-0.21
2023-02-15T02:00:47.781Z,-0.10
2023-02-15T02:03:14.270Z,-0.08
2023-02-15T02:05:40.819Z,-0.35
2023-02-15T02:08:07.281Z,-0.62
2023-02-15T02:10:33.842Z,-0.69
2023-02-15T02:13:01.314Z,-0.95
2023-02-15T02:15:42.087Z,-1.07
2023-02-15T02:18:22.653Z,-0.93
2023-02-15T02:21:10.383Z,-1.01
2023-02-15T02:24:01.736Z,-1.14
2023-02-15T02:26:52.819Z,-0.65
2023-02-15T02:29:37.515Z,-0.62
2023-02-15T02:32:09.570Z,-0.66
2023-02-15T02:34:49.084Z,-0.86
2023-02-15T02:37:37.156Z,-1.10
2023-02-15T02:40:24.874Z,-1.00
2023-02-15T02:42:57.105Z,-1.29
2023-02-15T02:45:27.003Z,-1.00
2023-02-15T02:48:07.331Z,-1.01
2023-02-15T02:50:33.803Z,-1.37
2023-02-15T02:53:00.349Z,-1.33
2023-02-15T02:55:30.358Z,-1.26
2023-02-15T02:58:00.247Z,-1.25
2023-02-15T03:00:27.471Z,-1.25
2023-02-15T03:03:27.299Z,-1.22
2023-02-15T03:05:55.629Z,-1.30
2023-02-15T03:08:25.517Z,-1.34
2023-02-15T03:10:53.991Z,-1.50
2023-02-15T03:13:20.816Z,-1.48
2023-02-15T03:16:05.925Z,-1.55
2023-02-15T03:18:36.759Z,-1.61
2023-02-15T03:21:03.251Z,-1.66
2023-02-15T03:23:29.714Z,-1.83
2023-02-15T03:26:01.675Z,-2.01
2023-02-15T03:28:34.664Z,-1.99
2023-02-15T03:31:01.959Z,-2.06
2023-02-15T03:33:28.480Z,-2.03
2023-02-15T03:36:26.157Z,-2.24
2023-02-15T03:39:21.862Z,-2.22
2023-02-15T03:42:12.973Z,-1.81
2023-02-15T03:44:54.971Z,-1.68
2023-02-15T03:47:24.326Z,-1.72
2023-02-15T03:50:01.238Z,-1.56
2023-02-15T03:52:27.912Z,-1.73
2023-02-15T03:54:54.383Z,-1.93
2023-02-15T03:57:40.500Z,-1.92
2023-02-15T04:00:29.960Z,-1.94
2023-02-15T04:03:27.184Z,-1.82
2023-02-15T04:05:53.896Z,-1.72
2023-02-15T04:08:20.393Z,-1.68
2023-02-15T04:10:58.960Z,-1.88
2023-02-15T04:13:31.121Z,-2.08
2023-02-15T04:16:07.640Z,-2.31
2023-02-15T04:18:58.300Z,-2.35
2023-02-15T04:21:43.442Z,-2.34
2023-02-15T04:24:28.653Z,-2.25
2023-02-15T04:26:55.474Z,-2.11
2023-02-15T04:29:22.234Z,-2.15
2023-02-15T04:31:48.966Z,-1.97
2023-02-15T04:34:15.734Z,-1.93
2023-02-15T04:36:42.598Z,-1.91
2023-02-15T04:39:09.197Z,-2.01
2023-02-15T04:41:35.685Z,-2.15
2023-02-15T04:44:02.236Z,-2.29
2023-02-15T04:46:28.825Z,-2.24
2023-02-15T04:48:56.360Z,-2.24
2023-02-15T04:51:22.841Z,-2.40
2023-02-15T04:53:49.445Z,-2.38
2023-02-15T04:56:16.103Z,-2.41
2023-02-15T04:58:42.556Z,-2.34
2023-02-15T05:01:09.712Z,-2.31
2023-02-15T05:03:36.243Z,-2.25
2023-02-15T05:06:03.014Z,-2.23
2023-02-15T05:08:29.713Z,-2.26
2023-02-15T05:10:56.169Z,-2.21
2023-02-15T05:13:22.655Z,-2.33
2023-02-15T05:15:49.970Z,-2.37
2023-02-15T05:18:16.981Z,-2.32
2023-02-15T05:20:43.590Z,-2.46
2023-02-15T05:23:10.122Z,-2.63
2023-02-15T05:25:55.257Z,-2.63
2023-02-15T05:28:22.587Z,-2.50
2023-02-15T05:30:49.783Z,-2.54
2023-02-15T05:33:16.409Z,-2.38
2023-02-15T05:35:43.147Z,-2.34
2023-02-15T05:38:09.717Z,-2.30
2023-02-15T05:40:36.183Z,-2.31
2023-02-15T05:43:02.663Z,-2.30
2023-02-15T05:45:29.234Z,-2.14
2023-02-15T05:47:56.034Z,-1.97
2023-02-15T05:50:22.776Z,-1.96
2023-02-15T05:52:51.256Z,-2.05
2023-02-15T05:55:18.865Z,-2.14
2023-02-15T05:57:45.373Z,-2.18
2023-02-15T06:00:12.703Z,-2.37
2023-02-15T06:02:39.531Z,-2.28
2023-02-15T06:05:06.496Z,-2.37
2023-02-15T06:07:33.040Z,-2.39
2023-02-15T06:09:59.521Z,-2.29
2023-02-15T06:12:26.000Z,-2.39
2023-02-15T06:14:52.748Z,-2.13
2023-02-15T06:17:19.230Z,-2.36
2023-02-15T06:19:45.732Z,-2.45
2023-02-15T06:22:14.947Z,-2.22
2023-02-15T06:24:43.468Z,-2.23
2023-02-15T06:27:10.996Z,-2.22
2023-02-15T06:29:37.468Z,-2.29
2023-02-15T06:32:04.117Z,-2.37
2023-02-15T06:34:30.656Z,-2.24
2023-02-15T06:36:57.195Z,-2.34
2023-02-15T06:39:23.642Z,-2.17
2023-02-15T06:41:50.107Z,-2.11
2023-02-15T06:44:16.595Z,-2.12
2023-02-15T06:46:43.108Z,-2.27
2023-02-15T06:49:09.652Z,-2.27
2023-02-15T06:51:36.103Z,-2.38
2023-02-15T06:54:02.559Z,-2.43
2023-02-15T06:56:29.001Z,-2.46
2023-02-15T06:58:55.468Z,-2.43
2023-02-15T07:01:21.948Z,-2.23
2023-02-15T07:03:48.455Z,-1.97
2023-02-15T07:06:14.943Z,-1.79
2023-02-15T07:08:41.446Z,-1.78
2023-02-15T07:11:26.706Z,-1.72
2023-02-15T07:13:53.609Z,-1.77
2023-02-15T07:16:20.509Z,-1.75
2023-02-15T07:18:47.068Z,-1.80
2023-02-15T07:21:13.537Z,-1.87
2023-02-15T07:23:40.416Z,-1.82
2023-02-15T07:26:07.076Z,-1.64
2023-02-15T07:28:34.397Z,-1.64
2023-02-15T07:31:04.632Z,-1.55
2023-02-15T07:33:34.625Z,-1.28
2023-02-15T07:36:03.192Z,-1.27
2023-02-15T07:38:34.834Z,-1.24
2023-02-15T07:41:05.037Z,-1.11
2023-02-15T07:43:31.544Z,-1.11
2023-02-15T07:46:02.069Z,-1.06
2023-02-15T07:48:28.737Z,-0.91
2023-02-15T07:50:55.237Z,-0.87
2023-02-15T07:53:21.722Z,-0.80
2023-02-15T07:55:48.190Z,-0.69
2023-02-15T07:58:14.659Z,-0.51
2023-02-15T08:00:59.189Z,-0.37
2023-02-15T08:03:27.762Z,-0.25
2023-02-15T08:05:59.217Z,-0.07
2023-02-15T08:08:32.382Z,0.15
2023-02-15T08:11:21.680Z,0.21
2023-02-15T08:13:54.681Z,0.25
2023-02-15T08:16:25.450Z,0.24
2023-02-15T08:18:52.985Z,0.22
2023-02-15T08:21:20.281Z,0.28
2023-02-15T08:23:46.966Z,0.17
2023-02-15T08:26:13.500Z,0.18
2023-02-15T08:28:41.923Z,0.04
2023-02-15T08:31:12.217Z,0.12
2023-02-15T08:33:39.460Z,0.08
2023-02-15T08:36:11.062Z,-0.06
2023-02-15T08:38:37.570Z,-0.04
2023-02-15T08:41:10.837Z,0.08
2023-02-15T08:43:37.308Z,0.13
2023-02-15T08:46:03.785Z,0.21
2023-02-15T08:48:30.283Z,0.24
2023-02-15T08:50:56.800Z,0.34
2023-02-15T08:53:23.313Z,0.32
2023-02-15T08:55:59.456Z,0.30
2023-02-15T08:58:26.191Z,0.30
2023-02-15T09:00:52.866Z,0.31
2023-02-15T09:03:19.415Z,0.21
2023-02-15T09:05:45.907Z,0.21
2023-02-15T09:08:12.378Z,0.24
2023-02-15T09:10:38.838Z,0.48
2023-02-15T09:13:05.334Z,0.33
2023-02-15T09:15:31.792Z,0.34
2023-02-15T09:18:02.298Z,0.36
2023-02-15T09:20:29.743Z,0.49
2023-02-15T09:22:58.158Z,0.40
2023-02-15T09:25:26.177Z,0.39
2023-02-15T09:27:52.886Z,0.36
2023-02-15T09:30:19.856Z,0.51
2023-02-15T09:32:47.093Z,0.54
2023-02-15T09:35:13.609Z,0.55
2023-02-15T09:37:40.336Z,0.76
2023-02-15T09:40:07.400Z,0.93
2023-02-15T09:43:05.002Z,1.16
2023-02-15T09:45:55.206Z,1.30
2023-02-15T09:48:28.580Z,1.60
2023-02-15T09:51:02.416Z,1.71
2023-02-15T09:53:55.028Z,1.60
2023-02-15T09:56:38.398Z,1.67
2023-02-15T09:59:36.614Z,1.86
2023-02-15T10:02:12.525Z,1.50
2023-02-15T10:04:45.937Z,1.55
2023-02-15T10:07:44.041Z,1.73
2023-02-15T10:10:30.657Z,1.61
2023-02-15T10:13:06.037Z,1.76
2023-02-15T10:15:52.950Z,1.79
2023-02-15T10:18:25.415Z,1.73
2023-02-15T10:20:58.733Z,1.67
2023-02-15T10:23:31.244Z,1.79
2023-02-15T10:26:16.015Z,1.93
2023-02-15T10:28:52.636Z,1.91
2023-02-15T10:31:29.564Z,1.92
2023-02-15T10:34:14.844Z,1.92
2023-02-15T10:36:59.933Z,2.14
2023-02-15T10:39:30.635Z,2.20
2023-02-15T10:42:21.544Z,2.23
2023-02-15T10:45:00.146Z,2.42
2023-02-15T10:47:39.278Z,2.50
2023-02-15T10:50:14.786Z,2.53
2023-02-15T10:53:04.398Z,2.73
2023-02-15T10:55:46.011Z,3.01
2023-02-15T10:58:29.882Z,3.27
2023-02-15T11:01:20.903Z,3.59
2023-02-15T11:04:07.068Z,3.84
2023-02-15T11:06:33.546Z,3.85
2023-02-15T11:09:26.882Z,4.04
2023-02-15T11:11:54.703Z,3.89
2023-02-15T11:14:42.197Z,3.70
2023-02-15T11:17:20.860Z,4.03
2023-02-15T11:20:17.213Z,3.87
2023-02-15T11:22:43.748Z,4.01
2023-02-15T11:25:22.476Z,4.10
2023-02-15T11:27:49.284Z,3.86
2023-02-15T11:30:22.887Z,4.38
2023-02-15T11:32:55.337Z,4.75
2023-02-15T11:35:42.686Z,4.76
2023-02-15T11:38:44.327Z,4.56
2023-02-15T11:41:22.747Z,4.78
2023-02-15T11:44:04.354Z,4.98
2023-02-15T11:46:30.862Z,5.33
2023-02-15T11:48:57.592Z,5.33
2023-02-15T11:51:24.429Z,5.47
2023-02-15T11:53:51.308Z,5.74
2023-02-15T11:56:19.301Z,5.98
2023-02-15T11:58:52.908Z,6.16
2023-02-15T12:01:24.422Z,6.56
2023-02-15T12:03:56.313Z,6.62
2023-02-15T12:06:30.956Z,6.57
2023-02-15T12:09:16.999Z,6.51
2023-02-15T12:11:43.654Z,6.48
2023-02-15T12:14:12.570Z,6.54
2023-02-15T12:16:49.975Z,6.31
2023-02-15T12:19:28.447Z,6.40
2023-02-15T12:21:54.949Z,6.33
2023-02-15T12:24:27.276Z,6.52
2023-02-15T12:27:04.701Z,6.66
2023-02-15T12:29:35.493Z,6.67
2023-02-15T12:32:02.139Z,7.01
2023-02-15T12:34:31.910Z,7.16
2023-02-15T12:37:01.517Z,7.35
2023-02-15T12:39:31.947Z,7.43
2023-02-15T12:42:04.463Z,7.88
2023-02-15T12:44:35.206Z,8.13
2023-02-15T12:47:06.385Z,8.23
2023-02-15T12:49:34.411Z,8.06
2023-02-15T12:52:02.247Z,7.96
2023-02-15T12:54:42.856Z,8.40
2023-02-15T12:57:28.920Z,7.81
2023-02-15T12:59:58.997Z,8.33
2023-02-15T13:02:43.839Z,7.79
2023-02-15T13:05:20.728Z,7.81
2023-02-15T13:08:16.943Z,8.15
2023-02-15T13:11:04.025Z,8.06
2023-02-15T13:13:36.012Z,7.61
2023-02-15T13:16:05.098Z,8.09
2023-02-15T13:18:33.949Z,8.10
2023-02-15T13:21:27.732Z,8.50
2023-02-15T13:24:00.091Z,8.58
2023-02-15T13:26:27.609Z,8.79
2023-02-15T13:28:56.640Z,8.86
2023-02-15T13:31:25.776Z,8.70
2023-02-15T13:33:57.696Z,8.33
2023-02-15T13:36:32.318Z,8.02
2023-02-15T13:39:08.510Z,8.11
2023-02-15T13:41:55.698Z,8.24
2023-02-15T13:44:25.142Z,8.31
2023-02-15T13:46:53.771Z,8.24
2023-02-15T13:49:49.205Z,8.16
2023-02-15T13:52:22.365Z,8.02
2023-02-15T13:54:54.694Z,7.87
2023-02-15T13:58:00.359Z,8.06
2023-02-15T14:01:00.110Z,8.14
2023-02-15T14:03:43.465Z,8.12
2023-02-15T14:06:34.212Z,8.10
2023-02-15T14:09:18.361Z,8.03
2023-02-15T14:12:09.153Z,7.80
2023-02-15T14:14:58.688Z,7.38
2023-02-15T14:18:02.678Z,7.26
2023-02-15T14:20:50.006Z,7.07
2023-02-15T14:23:47.547Z,7.01
2023-02-15T14:26:39.121Z,7.01
2023-02-15T14:29:11.972Z,7.00
2023-02-15T14:31:43.766Z,7.02
2023-02-15T14:34:23.234Z,7.01
2023-02-15T14:36:51.217Z,7.00
2023-02-15T14:39:55.095Z,6.97
2023-02-15T14:42:35.599Z,6.91
2023-02-15T14:45:08.336Z,6.95
2023-02-15T14:47:37.266Z,6.83
2023-02-15T14:50:32.129Z,6.72
2023-02-15T14:53:24.398Z,6.60
2023-02-15T14:56:11.939Z,6.62
2023-02-15T14:58:38.522Z,6.64
2023-02-15T15:01:09.092Z,6.64
2023-02-15T15:03:36.556Z,6.65
2023-02-15T15:06:05.825Z,6.64
2023-02-15T15:08:38.395Z,6.62
2023-02-15T15:11:42.498Z,6.54
2023-02-15T15:14:10.076Z,6.49
2023-02-15T15:16:36.698Z,6.55
2023-02-15T15:19:04.379Z,6.52
2023-02-15T15:21:49.072Z,6.43
2023-02-15T15:24:38.284Z,6.42
2023-02-15T15:27:38.829Z,6.32
2023-02-15T15:30:14.277Z,6.30
2023-02-15T15:32:58.053Z,6.29
2023-02-15T15:35:30.538Z,6.20
2023-02-15T15:37:56.914Z,6.04
2023-02-15T15:40:42.615Z,6.02
2023-02-15T15:43:31.301Z,6.07
2023-02-15T15:46:19.516Z,6.07
2023-02-15T15:48:46.281Z,6.03
2023-02-15T15:51:22.103Z,6.06
2023-02-15T15:53:51.383Z,5.73
2023-02-15T15:56:23.889Z,5.72
2023-02-15T15:58:53.024Z,5.74
2023-02-15T16:01:28.135Z,5.75
2023-02-15T16:03:56.297Z,5.67
2023-02-15T16:06:31.144Z,5.72
2023-02-15T16:08:57.632Z,5.52
2023-02-15T16:11:26.546Z,5.69
2023-02-15T16:13:53.890Z,5.66
2023-02-15T16:16:25.024Z,5.59
2023-02-15T16:18:51.526Z,5.67
2023-02-15T16:21:30.095Z,5.57
2023-02-15T16:24:08.747Z,5.36
2023-02-15T16:27:12.998Z,5.45
2023-02-15T16:29:39.729Z,5.39
2023-02-15T16:32:23.204Z,5.21
2023-02-15T16:34:53.977Z,5.26
2023-02-15T16:37:28.358Z,5.15
2023-02-15T16:39:55.859Z,5.13
2023-02-15T16:42:22.581Z,4.91
2023-02-15T16:44:56.652Z,5.02
2023-02-15T16:47:25.650Z,4.93
2023-02-15T16:49:52.832Z,4.77
2023-02-15T16:52:25.025Z,4.70
2023-02-15T16:54:56.780Z,4.67
2023-02-15T16:57:25.668Z,4.74
2023-02-15T16:59:53.340Z,4.75
2023-02-15T17:02:43.201Z,4.65
2023-02-15T17:05:12.001Z,4.59
2023-02-15T17:08:02.273Z,4.66
2023-02-15T17:10:32.692Z,4.58
2023-02-15T17:13:02.818Z,4.59
2023-02-15T17:15:44.753Z,4.47
2023-02-15T17:18:19.675Z,4.16
2023-02-15T17:20:47.245Z,4.11
2023-02-15T17:23:32.713Z,4.09
2023-02-15T17:25:59.662Z,4.11
2023-02-15T17:28:28.298Z,4.17
2023-02-15T17:30:55.043Z,4.15
2023-02-15T17:33:24.486Z,4.32
2023-02-15T17:36:20.135Z,4.31
2023-02-15T17:38:58.472Z,4.26
2023-02-15T17:41:25.534Z,4.25
2023-02-15T17:43:52.012Z,4.16
2023-02-15T17:46:19.664Z,4.14
2023-02-15T17:48:47.424Z,4.08
2023-02-15T17:51:14.304Z,4.03
2023-02-15T17:53:41.286Z,3.96
2023-02-15T17:56:10.788Z,3.97
2023-02-15T17:58:37.523Z,3.93
2023-02-15T18:01:25.907Z,3.94
2023-02-15T18:04:11.768Z,3.94
2023-02-15T18:06:58.441Z,3.91
2023-02-15T18:09:43.860Z,4.10
2023-02-15T18:12:24.654Z,3.97
2023-02-15T18:14:51.371Z,3.78
2023-02-15T18:17:18.158Z,3.75
2023-02-15T18:19:45.072Z,3.69
2023-02-15T18:22:16.304Z,3.61
2023-02-15T18:24:43.129Z,3.56
2023-02-15T18:27:13.898Z,3.52
2023-02-15T18:29:40.451Z,3.46
2023-02-15T18:32:15.899Z,3.48
2023-02-15T18:34:42.406Z,3.42
2023-02-15T18:37:14.164Z,3.26
2023-02-15T18:39:46.670Z,3.27
2023-02-15T18:42:24.381Z,3.27
2023-02-15T18:44:52.112Z,3.19
2023-02-15T18:47:18.603Z,3.19
2023-02-15T18:49:45.113Z,3.12
2023-02-15T18:52:19.221Z,3.07
2023-02-15T18:54:46.297Z,3.00
2023-02-15T18:57:13.776Z,2.91
2023-02-15T18:59:40.545Z,2.95
2023-02-15T19:02:15.175Z,2.94
2023-02-15T19:04:41.862Z,2.87
2023-02-15T19:07:29.726Z,2.82
2023-02-15T19:09:57.369Z,2.77
2023-02-15T19:12:23.901Z,2.60
2023-02-15T19:14:52.891Z,2.57
2023-02-15T19:17:20.830Z,2.68
2023-02-15T19:19:47.380Z,2.73
2023-02-15T19:22:32.605Z,2.75
2023-02-15T19:25:00.628Z,2.78
2023-02-15T19:27:37.165Z,2.79
2023-02-15T19:30:27.069Z,2.62
2023-02-15T19:32:53.878Z,2.79
2023-02-15T19:35:22.441Z,2.89
2023-02-15T19:37:54.475Z,2.63
2023-02-15T19:40:28.832Z,2.54
2023-02-15T19:42:55.456Z,2.74
2023-02-15T19:45:24.529Z,2.58
2023-02-15T19:47:52.367Z,2.55
2023-02-15T19:50:20.111Z,2.50
2023-02-15T19:52:46.645Z,2.22
2023-02-15T19:55:35.000Z,2.31
2023-02-15T19:58:01.812Z,2.25
2023-02-15T20:00:30.008Z,2.35
2023-02-15T20:02:57.885Z,2.09
2023-02-15T20:05:24.444Z,1.89
2023-02-15T20:07:53.327Z,1.99
2023-02-15T20:10:24.045Z,1.93
2023-02-15T20:12:50.589Z,2.02
2023-02-15T20:15:30.869Z,2.11
2023-02-15T20:17:58.073Z,1.89
2023-02-15T20:20:28.411Z,1.91
2023-02-15T20:22:54.936Z,1.94
2023-02-15T20:25:25.469Z,1.94
2023-02-15T20:27:51.950Z,1.79
2023-02-15T20:30:28.938Z,1.79
2023-02-15T20:32:55.589Z,1.80
2023-02-15T20:35:23.771Z,2.05
2023-02-15T20:37:54.005Z,2.16
2023-02-15T20:40:22.080Z,2.18
2023-02-15T20:42:48.551Z,2.07
2023-02-15T20:45:23.182Z,2.03
2023-02-15T20:47:50.256Z,1.85
2023-02-15T20:50:21.085Z,1.66
2023-02-15T20:52:48.196Z,1.43
2023-02-15T20:55:16.665Z,1.40
2023-02-15T20:57:43.314Z,1.35
2023-02-15T21:00:14.168Z,1.25
2023-02-15T21:02:41.051Z,1.39
2023-02-15T21:05:15.799Z,1.53
2023-02-15T21:07:42.260Z,1.45
2023-02-15T21:10:13.975Z,1.49
2023-02-15T21:12:40.460Z,1.38
2023-02-15T21:15:27.287Z,1.31
2023-02-15T21:17:53.898Z,1.29
2023-02-15T21:20:20.484Z,1.28
2023-02-15T21:22:48.038Z,1.30
2023-02-15T21:25:34.386Z,1.37
2023-02-15T21:28:01.127Z,1.33
2023-02-15T21:30:27.688Z,1.25
2023-02-15T21:32:54.245Z,1.27
2023-02-15T21:35:20.894Z,1.19
2023-02-15T21:37:49.213Z,1.17
2023-02-15T21:40:17.229Z,1.07
2023-02-15T21:43:03.914Z,1.14
2023-02-15T21:45:49.063Z,1.25
2023-02-15T21:48:15.577Z,1.21
2023-02-15T21:51:00.681Z,1.35
2023-02-15T21:53:31.273Z,1.42
2023-02-15T21:55:59.110Z,1.62
2023-02-15T21:58:26.928Z,1.70
2023-02-15T22:00:55.322Z,2.00
2023-02-15T22:03:26.413Z,2.00
2023-02-15T22:05:52.876Z,1.68
2023-02-15T22:08:19.935Z,1.67
2023-02-15T22:10:47.939Z,2.00
2023-02-15T22:13:21.952Z,2.00
2023-02-15T22:15:48.411Z,2.18
2023-02-15T22:18:23.516Z,2.35
2023-02-15T22:20:50.105Z,2.25
2023-02-15T22:23:16.626Z,2.32
2023-02-15T22:25:54.616Z,2.29
2023-02-15T22:28:23.546Z,2.17
2023-02-15T22:30:49.997Z,2.00
2023-02-15T22:33:27.164Z,1.99
2023-02-15T22:35:53.646Z,1.88
2023-02-15T22:38:20.516Z,1.82
2023-02-15T22:40:47.764Z,1.49
2023-02-15T22:43:43.438Z,1.44
2023-02-15T22:46:21.325Z,1.34
2023-02-15T22:48:48.208Z,1.35
2023-02-15T22:51:15.917Z,1.38
2023-02-15T22:53:42.406Z,1.48
2023-02-15T22:56:11.577Z,1.43
2023-02-15T22:58:38.041Z,1.41
2023-02-15T23:01:04.821Z,1.45
2023-02-15T23:03:33.338Z,1.35
2023-02-15T23:05:59.931Z,1.47
2023-02-15T23:08:26.408Z,1.36
2023-02-15T23:10:55.016Z,1.16
2023-02-15T23:13:26.993Z,1.09
2023-02-15T23:15:58.411Z,1.06
2023-02-15T23:18:28.825Z,0.96
2023-02-15T23:21:03.404Z,0.84
2023-02-15T23:23:29.939Z,0.78
2023-02-15T23:25:56.597Z,0.78
2023-02-15T23:28:35.767Z,0.79
2023-02-15T23:31:02.712Z,0.75
2023-02-15T23:33:31.534Z,0.77
2023-02-15T23:35:58.056Z,0.68
2023-02-15T23:38:29.152Z,0.61
2023-02-15T23:41:18.990Z,0.64
2023-02-15T23:43:50.506Z,0.58
2023-02-15T23:46:39.378Z,0.53
2023-02-15T23:49:14.835Z,0.61
2023-02-15T23:51:42.713Z,0.72
2023-02-15T23:54:09.166Z,0.48
2023-02-15T23:56:35.632Z,0.44
2023-02-15T23:59:02.091Z,0.35
